sensor_id;sensor_type;location;lat;lon;timestamp;temperature;humidity
34833;DHT22;55941;50.800;4.342;2023-04-21T00:00:08;8.20;99.90
34833;DHT22;55941;50.800;4.342;2023-04-21T00:02:34;8.20;99.90
34833;DHT22;55941;50.800;4.342;2023-04-21T00:05:08;8.20;99.90
34833;DHT22;55941;50.800;4.342;2023-04-21T00:07:35;8.30;99.90
34833;DHT22;55941;50.800;4.342;2023-04-21T00:10:09;8.30;99.90
34833;DHT22;55941;50.800;4.342;2023-04-21T00:12:35;8.40;99.90
34833;DHT22;55941;50.800;4.342;2023-04-21T00:15:02;8.40;99.90
34833;DHT22;55941;50.800;4.342;2023-04-21T00:17:28;8.40;99.90
34833;DHT22;55941;50.800;4.342;2023-04-21T00:19:54;8.30;99.90
34833;DHT22;55941;50.800;4.342;2023-04-21T00:22:20;8.30;99.90
34833;DHT22;55941;50.800;4.342;2023-04-21T00:24:47;8.30;99.90
34833;DHT22;55941;50.800;4.342;2023-04-21T00:27:12;8.40;99.90
34833;DHT22;55941;50.800;4.342;2023-04-21T00:29:40;8.40;99.90
34833;DHT22;55941;50.800;4.342;2023-04-21T00:32:06;8.40;99.90
34833;DHT22;55941;50.800;4.342;2023-04-21T00:34:36;8.50;99.90
34833;DHT22;55941;50.800;4.342;2023-04-21T00:37:02;8.50;99.90
34833;DHT22;55941;50.800;4.342;2023-04-21T00:39:27;8.60;99.90
34833;DHT22;55941;50.800;4.342;2023-04-21T00:41:53;8.50;99.90
34833;DHT22;55941;50.800;4.342;2023-04-21T00:44:19;8.60;99.90
34833;DHT22;55941;50.800;4.342;2023-04-21T00:46:45;8.60;99.90
34833;DHT22;55941;50.800;4.342;2023-04-21T00:49:12;8.60;99.90
34833;DHT22;55941;50.800;4.342;2023-04-21T00:51:38;8.70;99.90
34833;DHT22;55941;50.800;4.342;2023-04-21T00:54:06;8.80;99.90
34833;DHT22;55941;50.800;4.342;2023-04-21T00:56:33;8.70;99.90
34833;DHT22;55941;50.800;4.342;2023-04-21T00:59:00;8.70;99.90
34833;DHT22;55941;50.800;4.342;2023-04-21T01:01:31;8.60;99.90
34833;DHT22;55941;50.800;4.342;2023-04-21T01:03:59;8.60;99.90
34833;DHT22;55941;50.800;4.342;2023-04-21T01:06:32;8.60;99.90
34833;DHT22;55941;50.800;4.342;2023-04-21T01:09:01;8.60;99.90
34833;DHT22;55941;50.800;4.342;2023-04-21T01:11:29;8.70;99.90
34833;DHT22;55941;50.800;4.342;2023-04-21T01:13:56;8.70;99.90
34833;DHT22;55941;50.800;4.342;2023-04-21T01:16:22;8.60;99.90
34833;DHT22;55941;50.800;4.342;2023-04-21T01:18:49;8.50;99.90
34833;DHT22;55941;50.800;4.342;2023-04-21T01:21:16;8.50;99.90
34833;DHT22;55941;50.800;4.342;2023-04-21T01:23:43;8.50;99.90
34833;DHT22;55941;50.800;4.342;2023-04-21T01:26:09;8.50;99.90
34833;DHT22;55941;50.800;4.342;2023-04-21T01:28:35;8.40;99.90
34833;DHT22;55941;50.800;4.342;2023-04-21T01:31:01;8.50;99.90
34833;DHT22;55941;50.800;4.342;2023-04-21T01:33:27;8.50;99.90
34833;DHT22;55941;50.800;4.342;2023-04-21T01:35:53;8.50;99.90
34833;DHT22;55941;50.800;4.342;2023-04-21T01:38:20;8.40;99.90
34833;DHT22;55941;50.800;4.342;2023-04-21T01:40:51;8.40;99.90
34833;DHT22;55941;50.800;4.342;2023-04-21T01:43:19;8.40;99.90
34833;DHT22;55941;50.800;4.342;2023-04-21T01:45:47;8.40;99.90
34833;DHT22;55941;50.800;4.342;2023-04-21T01:48:13;8.30;99.90
34833;DHT22;55941;50.800;4.342;2023-04-21T01:50:39;8.30;99.90
34833;DHT22;55941;50.800;4.342;2023-04-21T01:53:05;8.40;99.90
34833;DHT22;55941;50.800;4.342;2023-04-21T01:55:31;8.40;99.90
34833;DHT22;55941;50.800;4.342;2023-04-21T01:57:57;8.30;99.90
34833;DHT22;55941;50.800;4.342;2023-04-21T02:00:24;8.30;99.90
34833;DHT22;55941;50.800;4.342;2023-04-21T02:02:50;8.20;99.90
34833;DHT22;55941;50.800;4.342;2023-04-21T02:05:15;8.30;99.90
34833;DHT22;55941;50.800;4.342;2023-04-21T02:07:41;8.10;99.90
34833;DHT22;55941;50.800;4.342;2023-04-21T02:10:07;8.20;99.90
34833;DHT22;55941;50.800;4.342;2023-04-21T02:12:33;8.10;99.90
34833;DHT22;55941;50.800;4.342;2023-04-21T02:14:58;8.30;99.90
34833;DHT22;55941;50.800;4.342;2023-04-21T02:17:24;8.30;99.90
34833;DHT22;55941;50.800;4.342;2023-04-21T02:19:50;8.30;99.90
34833;DHT22;55941;50.800;4.342;2023-04-21T02:22:16;8.30;99.90
34833;DHT22;55941;50.800;4.342;2023-04-21T02:24:42;8.40;99.90
34833;DHT22;55941;50.800;4.342;2023-04-21T02:27:08;8.40;99.90
34833;DHT22;55941;50.800;4.342;2023-04-21T02:29:33;8.50;99.90
34833;DHT22;55941;50.800;4.342;2023-04-21T02:32:00;8.50;99.90
34833;DHT22;55941;50.800;4.342;2023-04-21T02:34:25;8.40;99.90
34833;DHT22;55941;50.800;4.342;2023-04-21T02:36:51;8.40;99.90
34833;DHT22;55941;50.800;4.342;2023-04-21T02:39:18;8.40;99.90
34833;DHT22;55941;50.800;4.342;2023-04-21T02:41:43;8.40;99.90
34833;DHT22;55941;50.800;4.342;2023-04-21T02:44:09;8.50;99.90
34833;DHT22;55941;50.800;4.342;2023-04-21T02:46:38;8.40;99.90
34833;DHT22;55941;50.800;4.342;2023-04-21T02:49:04;8.50;99.90
34833;DHT22;55941;50.800;4.342;2023-04-21T02:51:29;8.60;99.90
34833;DHT22;55941;50.800;4.342;2023-04-21T02:53:56;8.50;99.90
34833;DHT22;55941;50.800;4.342;2023-04-21T02:56:22;8.50;99.90
34833;DHT22;55941;50.800;4.342;2023-04-21T02:58:48;8.60;99.90
34833;DHT22;55941;50.800;4.342;2023-04-21T03:01:14;8.50;99.90
34833;DHT22;55941;50.800;4.342;2023-04-21T03:03:39;8.50;99.90
34833;DHT22;55941;50.800;4.342;2023-04-21T03:06:05;8.50;99.90
34833;DHT22;55941;50.800;4.342;2023-04-21T03:08:31;8.50;99.90
34833;DHT22;55941;50.800;4.342;2023-04-21T03:10:57;8.40;99.90
34833;DHT22;55941;50.800;4.342;2023-04-21T03:13:24;8.40;99.90
34833;DHT22;55941;50.800;4.342;2023-04-21T03:15:50;8.50;99.90
34833;DHT22;55941;50.800;4.342;2023-04-21T03:18:16;8.50;99.90
34833;DHT22;55941;50.800;4.342;2023-04-21T03:20:42;8.40;99.90
34833;DHT22;55941;50.800;4.342;2023-04-21T03:23:08;8.40;99.90
34833;DHT22;55941;50.800;4.342;2023-04-21T03:25:34;8.40;99.90
34833;DHT22;55941;50.800;4.342;2023-04-21T03:28:00;8.40;99.90
34833;DHT22;55941;50.800;4.342;2023-04-21T03:30:26;8.60;99.90
34833;DHT22;55941;50.800;4.342;2023-04-21T03:32:51;8.50;99.90
34833;DHT22;55941;50.800;4.342;2023-04-21T03:35:18;8.50;99.90
34833;DHT22;55941;50.800;4.342;2023-04-21T03:37:43;8.60;99.90
34833;DHT22;55941;50.800;4.342;2023-04-21T03:40:09;8.60;99.90
34833;DHT22;55941;50.800;4.342;2023-04-21T03:42:36;8.70;99.90
34833;DHT22;55941;50.800;4.342;2023-04-21T03:45:04;8.70;99.90
34833;DHT22;55941;50.800;4.342;2023-04-21T03:47:30;8.80;99.90
34833;DHT22;55941;50.800;4.342;2023-04-21T03:49:56;8.70;99.90
34833;DHT22;55941;50.800;4.342;2023-04-21T03:52:23;8.70;99.90
34833;DHT22;55941;50.800;4.342;2023-04-21T03:54:48;8.70;99.90
34833;DHT22;55941;50.800;4.342;2023-04-21T03:57:15;8.60;99.90
34833;DHT22;55941;50.800;4.342;2023-04-21T03:59:41;8.50;99.90
34833;DHT22;55941;50.800;4.342;2023-04-21T04:02:07;8.40;99.90
34833;DHT22;55941;50.800;4.342;2023-04-21T04:04:33;8.30;99.90
34833;DHT22;55941;50.800;4.342;2023-04-21T04:06:59;8.30;99.90
34833;DHT22;55941;50.800;4.342;2023-04-21T04:09:25;8.20;99.90
34833;DHT22;55941;50.800;4.342;2023-04-21T04:11:52;8.10;99.90
34833;DHT22;55941;50.800;4.342;2023-04-21T04:14:18;8.10;99.90
34833;DHT22;55941;50.800;4.342;2023-04-21T04:16:45;8.10;99.90
34833;DHT22;55941;50.800;4.342;2023-04-21T04:19:11;8.10;99.90
34833;DHT22;55941;50.800;4.342;2023-04-21T04:21:37;8.10;99.90
34833;DHT22;55941;50.800;4.342;2023-04-21T04:24:04;8.10;99.90
34833;DHT22;55941;50.800;4.342;2023-04-21T04:26:30;8.20;99.90
34833;DHT22;55941;50.800;4.342;2023-04-21T04:28:59;8.20;99.90
34833;DHT22;55941;50.800;4.342;2023-04-21T04:31:29;8.30;99.90
34833;DHT22;55941;50.800;4.342;2023-04-21T04:33:56;8.30;99.90
34833;DHT22;55941;50.800;4.342;2023-04-21T04:36:22;8.20;99.90
34833;DHT22;55941;50.800;4.342;2023-04-21T04:38:50;8.30;99.90
34833;DHT22;55941;50.800;4.342;2023-04-21T04:41:16;8.40;99.90
34833;DHT22;55941;50.800;4.342;2023-04-21T04:43:41;8.30;99.90
34833;DHT22;55941;50.800;4.342;2023-04-21T04:46:08;8.40;99.90
34833;DHT22;55941;50.800;4.342;2023-04-21T04:48:35;8.50;99.90
34833;DHT22;55941;50.800;4.342;2023-04-21T04:51:01;8.40;99.90
34833;DHT22;55941;50.800;4.342;2023-04-21T04:53:27;8.30;99.90
34833;DHT22;55941;50.800;4.342;2023-04-21T04:55:53;8.20;99.90
34833;DHT22;55941;50.800;4.342;2023-04-21T04:58:19;8.40;99.90
34833;DHT22;55941;50.800;4.342;2023-04-21T05:00:45;8.30;99.90
34833;DHT22;55941;50.800;4.342;2023-04-21T05:03:11;8.30;99.90
34833;DHT22;55941;50.800;4.342;2023-04-21T05:05:36;8.30;99.90
34833;DHT22;55941;50.800;4.342;2023-04-21T05:08:02;8.40;99.90
34833;DHT22;55941;50.800;4.342;2023-04-21T05:10:29;8.50;99.90
34833;DHT22;55941;50.800;4.342;2023-04-21T05:12:56;8.60;99.90
34833;DHT22;55941;50.800;4.342;2023-04-21T05:15:22;8.50;99.90
34833;DHT22;55941;50.800;4.342;2023-04-21T05:17:50;8.50;99.90
34833;DHT22;55941;50.800;4.342;2023-04-21T05:20:16;8.50;99.90
34833;DHT22;55941;50.800;4.342;2023-04-21T05:22:42;8.50;99.90
34833;DHT22;55941;50.800;4.342;2023-04-21T05:25:10;8.60;99.90
34833;DHT22;55941;50.800;4.342;2023-04-21T05:27:40;8.80;99.90
34833;DHT22;55941;50.800;4.342;2023-04-21T05:30:07;8.80;99.90
34833;DHT22;55941;50.800;4.342;2023-04-21T05:32:33;8.80;99.90
34833;DHT22;55941;50.800;4.342;2023-04-21T05:35:00;8.80;99.90
34833;DHT22;55941;50.800;4.342;2023-04-21T05:37:26;8.80;99.90
34833;DHT22;55941;50.800;4.342;2023-04-21T05:39:51;8.70;99.90
34833;DHT22;55941;50.800;4.342;2023-04-21T05:42:18;8.50;99.90
34833;DHT22;55941;50.800;4.342;2023-04-21T05:44:44;8.50;99.90
34833;DHT22;55941;50.800;4.342;2023-04-21T05:47:10;8.50;99.90
34833;DHT22;55941;50.800;4.342;2023-04-21T05:49:35;8.50;99.90
34833;DHT22;55941;50.800;4.342;2023-04-21T05:52:02;8.50;99.90
34833;DHT22;55941;50.800;4.342;2023-04-21T05:54:28;8.50;99.90
34833;DHT22;55941;50.800;4.342;2023-04-21T05:56:53;8.40;99.90
34833;DHT22;55941;50.800;4.342;2023-04-21T05:59:19;8.50;99.90
34833;DHT22;55941;50.800;4.342;2023-04-21T06:01:45;8.60;99.90
34833;DHT22;55941;50.800;4.342;2023-04-21T06:04:12;8.40;99.90
34833;DHT22;55941;50.800;4.342;2023-04-21T06:06:38;8.50;99.90
34833;DHT22;55941;50.800;4.342;2023-04-21T06:09:03;8.60;99.90
34833;DHT22;55941;50.800;4.342;2023-04-21T06:11:30;8.70;99.90
34833;DHT22;55941;50.800;4.342;2023-04-21T06:13:55;8.60;99.90
34833;DHT22;55941;50.800;4.342;2023-04-21T06:16:24;8.50;99.90
34833;DHT22;55941;50.800;4.342;2023-04-21T06:18:49;8.50;99.90
34833;DHT22;55941;50.800;4.342;2023-04-21T06:21:15;8.50;99.90
34833;DHT22;55941;50.800;4.342;2023-04-21T06:23:41;8.60;99.90
34833;DHT22;55941;50.800;4.342;2023-04-21T06:26:07;8.70;99.90
34833;DHT22;55941;50.800;4.342;2023-04-21T06:28:34;8.70;99.90
34833;DHT22;55941;50.800;4.342;2023-04-21T06:31:03;8.70;99.90
34833;DHT22;55941;50.800;4.342;2023-04-21T06:33:29;8.60;99.90
34833;DHT22;55941;50.800;4.342;2023-04-21T06:35:55;8.60;99.90
34833;DHT22;55941;50.800;4.342;2023-04-21T06:38:21;8.80;99.90
34833;DHT22;55941;50.800;4.342;2023-04-21T06:40:46;9.00;99.90
34833;DHT22;55941;50.800;4.342;2023-04-21T06:43:12;9.10;99.90
34833;DHT22;55941;50.800;4.342;2023-04-21T06:45:38;9.00;99.90
34833;DHT22;55941;50.800;4.342;2023-04-21T06:48:04;9.10;99.90
34833;DHT22;55941;50.800;4.342;2023-04-21T06:50:30;9.20;99.90
34833;DHT22;55941;50.800;4.342;2023-04-21T06:52:55;9.20;99.90
34833;DHT22;55941;50.800;4.342;2023-04-21T06:55:21;9.30;99.90
34833;DHT22;55941;50.800;4.342;2023-04-21T06:57:47;9.30;99.90
34833;DHT22;55941;50.800;4.342;2023-04-21T07:00:13;9.30;99.90
34833;DHT22;55941;50.800;4.342;2023-04-21T07:02:39;9.30;99.90
34833;DHT22;55941;50.800;4.342;2023-04-21T07:05:06;9.30;99.90
34833;DHT22;55941;50.800;4.342;2023-04-21T07:07:32;9.40;99.90
34833;DHT22;55941;50.800;4.342;2023-04-21T07:09:58;9.40;99.90
34833;DHT22;55941;50.800;4.342;2023-04-21T07:12:24;9.30;99.90
34833;DHT22;55941;50.800;4.342;2023-04-21T07:14:50;9.40;99.90
34833;DHT22;55941;50.800;4.342;2023-04-21T07:17:15;9.60;99.90
34833;DHT22;55941;50.800;4.342;2023-04-21T07:19:41;9.70;99.90
34833;DHT22;55941;50.800;4.342;2023-04-21T07:22:08;9.70;99.90
34833;DHT22;55941;50.800;4.342;2023-04-21T07:24:34;9.80;99.90
34833;DHT22;55941;50.800;4.342;2023-04-21T07:27:01;9.90;99.90
34833;DHT22;55941;50.800;4.342;2023-04-21T07:29:28;10.20;99.90
34833;DHT22;55941;50.800;4.342;2023-04-21T07:31:54;10.30;99.90
34833;DHT22;55941;50.800;4.342;2023-04-21T07:34:20;10.10;99.90
34833;DHT22;55941;50.800;4.342;2023-04-21T07:36:47;10.10;99.90
34833;DHT22;55941;50.800;4.342;2023-04-21T07:39:13;10.20;99.90
34833;DHT22;55941;50.800;4.342;2023-04-21T07:41:38;10.30;99.90
34833;DHT22;55941;50.800;4.342;2023-04-21T07:44:04;10.30;99.90
34833;DHT22;55941;50.800;4.342;2023-04-21T07:46:30;10.40;99.90
34833;DHT22;55941;50.800;4.342;2023-04-21T07:48:57;10.50;99.90
34833;DHT22;55941;50.800;4.342;2023-04-21T07:51:24;10.70;99.90
34833;DHT22;55941;50.800;4.342;2023-04-21T07:53:50;10.80;99.90
34833;DHT22;55941;50.800;4.342;2023-04-21T07:56:16;10.90;99.90
34833;DHT22;55941;50.800;4.342;2023-04-21T07:58:42;11.00;99.90
34833;DHT22;55941;50.800;4.342;2023-04-21T08:01:07;11.10;99.90
34833;DHT22;55941;50.800;4.342;2023-04-21T08:03:33;11.30;99.90
34833;DHT22;55941;50.800;4.342;2023-04-21T08:05:59;11.30;99.90
34833;DHT22;55941;50.800;4.342;2023-04-21T08:08:25;11.30;99.90
34833;DHT22;55941;50.800;4.342;2023-04-21T08:10:50;11.40;99.90
34833;DHT22;55941;50.800;4.342;2023-04-21T08:13:16;11.40;99.90
34833;DHT22;55941;50.800;4.342;2023-04-21T08:15:42;11.50;99.90
34833;DHT22;55941;50.800;4.342;2023-04-21T08:18:08;11.40;99.90
34833;DHT22;55941;50.800;4.342;2023-04-21T08:20:34;11.30;99.90
34833;DHT22;55941;50.800;4.342;2023-04-21T08:22:59;11.40;99.90
34833;DHT22;55941;50.800;4.342;2023-04-21T08:25:25;11.60;99.90
34833;DHT22;55941;50.800;4.342;2023-04-21T08:27:51;11.70;99.90
34833;DHT22;55941;50.800;4.342;2023-04-21T08:30:17;11.80;99.90
34833;DHT22;55941;50.800;4.342;2023-04-21T08:32:43;11.60;99.90
34833;DHT22;55941;50.800;4.342;2023-04-21T08:35:10;11.80;99.90
34833;DHT22;55941;50.800;4.342;2023-04-21T08:37:37;11.90;99.90
34833;DHT22;55941;50.800;4.342;2023-04-21T08:40:04;12.10;99.90
34833;DHT22;55941;50.800;4.342;2023-04-21T08:42:30;12.40;99.90
34833;DHT22;55941;50.800;4.342;2023-04-21T08:44:56;12.60;99.90
34833;DHT22;55941;50.800;4.342;2023-04-21T08:47:23;12.80;99.90
34833;DHT22;55941;50.800;4.342;2023-04-21T08:49:50;12.70;99.90
34833;DHT22;55941;50.800;4.342;2023-04-21T08:52:17;12.70;99.90
34833;DHT22;55941;50.800;4.342;2023-04-21T08:54:42;12.80;99.90
34833;DHT22;55941;50.800;4.342;2023-04-21T08:57:08;12.80;99.90
34833;DHT22;55941;50.800;4.342;2023-04-21T08:59:34;12.70;99.90
34833;DHT22;55941;50.800;4.342;2023-04-21T09:02:14;12.80;99.90
34833;DHT22;55941;50.800;4.342;2023-04-21T09:04:41;12.90;99.90
34833;DHT22;55941;50.800;4.342;2023-04-21T09:07:07;13.00;99.90
34833;DHT22;55941;50.800;4.342;2023-04-21T09:12:18;13.20;99.90
34833;DHT22;55941;50.800;4.342;2023-04-21T09:14:44;13.20;99.90
34833;DHT22;55941;50.800;4.342;2023-04-21T09:17:10;13.30;99.90
34833;DHT22;55941;50.800;4.342;2023-04-21T09:19:37;13.40;99.90
34833;DHT22;55941;50.800;4.342;2023-04-21T09:22:03;13.40;99.90
34833;DHT22;55941;50.800;4.342;2023-04-21T09:24:29;13.70;99.90
34833;DHT22;55941;50.800;4.342;2023-04-21T09:26:55;13.70;99.90
34833;DHT22;55941;50.800;4.342;2023-04-21T09:29:24;13.60;99.90
34833;DHT22;55941;50.800;4.342;2023-04-21T09:31:51;13.60;99.90
34833;DHT22;55941;50.800;4.342;2023-04-21T09:34:19;13.70;99.90
34833;DHT22;55941;50.800;4.342;2023-04-21T09:36:46;13.70;99.90
34833;DHT22;55941;50.800;4.342;2023-04-21T09:39:12;13.70;99.90
34833;DHT22;55941;50.800;4.342;2023-04-21T09:41:39;13.90;99.90
34833;DHT22;55941;50.800;4.342;2023-04-21T09:44:05;13.90;99.90
34833;DHT22;55941;50.800;4.342;2023-04-21T09:46:34;13.60;99.90
34833;DHT22;55941;50.800;4.342;2023-04-21T09:49:03;13.70;99.90
34833;DHT22;55941;50.800;4.342;2023-04-21T09:51:30;13.90;99.90
34833;DHT22;55941;50.800;4.342;2023-04-21T09:53:59;14.00;99.90
34833;DHT22;55941;50.800;4.342;2023-04-21T09:56:25;14.10;99.90
34833;DHT22;55941;50.800;4.342;2023-04-21T09:58:57;14.20;99.90
34833;DHT22;55941;50.800;4.342;2023-04-21T10:01:26;14.30;99.90
34833;DHT22;55941;50.800;4.342;2023-04-21T10:03:52;14.20;99.90
34833;DHT22;55941;50.800;4.342;2023-04-21T10:06:18;14.10;99.90
34833;DHT22;55941;50.800;4.342;2023-04-21T10:08:46;14.30;99.90
34833;DHT22;55941;50.800;4.342;2023-04-21T10:11:14;14.50;99.90
34833;DHT22;55941;50.800;4.342;2023-04-21T10:13:41;14.60;99.90
34833;DHT22;55941;50.800;4.342;2023-04-21T10:16:08;14.60;99.90
34833;DHT22;55941;50.800;4.342;2023-04-21T10:18:38;14.60;99.90
34833;DHT22;55941;50.800;4.342;2023-04-21T10:21:08;14.70;99.90
34833;DHT22;55941;50.800;4.342;2023-04-21T10:23:42;14.70;99.90
34833;DHT22;55941;50.800;4.342;2023-04-21T10:26:11;15.00;99.90
34833;DHT22;55941;50.800;4.342;2023-04-21T10:29:04;15.10;99.90
34833;DHT22;55941;50.800;4.342;2023-04-21T10:31:34;15.20;99.90
34833;DHT22;55941;50.800;4.342;2023-04-21T10:39:03;15.40;99.90
34833;DHT22;55941;50.800;4.342;2023-04-21T10:41:33;15.50;99.90
34833;DHT22;55941;50.800;4.342;2023-04-21T10:44:13;15.50;99.90
34833;DHT22;55941;50.800;4.342;2023-04-21T10:46:48;15.80;99.90
34833;DHT22;55941;50.800;4.342;2023-04-21T10:49:27;16.10;99.90
34833;DHT22;55941;50.800;4.342;2023-04-21T10:54:36;16.20;99.90
34833;DHT22;55941;50.800;4.342;2023-04-21T10:57:05;16.20;99.90
34833;DHT22;55941;50.800;4.342;2023-04-21T10:59:33;16.30;99.90
34833;DHT22;55941;50.800;4.342;2023-04-21T11:01:59;16.50;99.90
34833;DHT22;55941;50.800;4.342;2023-04-21T11:04:26;16.40;98.80
34833;DHT22;55941;50.800;4.342;2023-04-21T11:09:32;16.90;98.20
34833;DHT22;55941;50.800;4.342;2023-04-21T11:12:03;17.20;97.80
34833;DHT22;55941;50.800;4.342;2023-04-21T11:14:34;17.70;97.30
34833;DHT22;55941;50.800;4.342;2023-04-21T11:17:01;18.20;96.50
34833;DHT22;55941;50.800;4.342;2023-04-21T11:19:27;18.10;96.00
34833;DHT22;55941;50.800;4.342;2023-04-21T11:21:53;18.40;95.30
34833;DHT22;55941;50.800;4.342;2023-04-21T11:24:22;18.80;93.70
34833;DHT22;55941;50.800;4.342;2023-04-21T11:26:48;19.20;93.50
34833;DHT22;55941;50.800;4.342;2023-04-21T11:29:14;19.50;92.90
34833;DHT22;55941;50.800;4.342;2023-04-21T11:31:42;19.50;93.00
34833;DHT22;55941;50.800;4.342;2023-04-21T11:34:10;20.10;91.80
34833;DHT22;55941;50.800;4.342;2023-04-21T11:36:39;20.50;90.90
34833;DHT22;55941;50.800;4.342;2023-04-21T11:39:07;21.00;87.60
34833;DHT22;55941;50.800;4.342;2023-04-21T11:41:35;21.30;85.90
34833;DHT22;55941;50.800;4.342;2023-04-21T11:44:01;21.40;83.10
34833;DHT22;55941;50.800;4.342;2023-04-21T11:46:27;21.60;80.10
34833;DHT22;55941;50.800;4.342;2023-04-21T11:49:00;21.10;78.00
34833;DHT22;55941;50.800;4.342;2023-04-21T11:51:38;21.00;79.80
34833;DHT22;55941;50.800;4.342;2023-04-21T11:54:09;21.10;80.10
34833;DHT22;55941;50.800;4.342;2023-04-21T11:56:39;21.90;77.20
34833;DHT22;55941;50.800;4.342;2023-04-21T11:59:09;22.40;76.60
34833;DHT22;55941;50.800;4.342;2023-04-21T12:01:45;22.70;73.00
34833;DHT22;55941;50.800;4.342;2023-04-21T12:04:16;23.20;73.50
34833;DHT22;55941;50.800;4.342;2023-04-21T12:06:59;23.40;72.70
34833;DHT22;55941;50.800;4.342;2023-04-21T12:09:25;23.80;69.10
34833;DHT22;55941;50.800;4.342;2023-04-21T12:11:53;23.50;66.70
34833;DHT22;55941;50.800;4.342;2023-04-21T12:14:20;24.10;63.90
34833;DHT22;55941;50.800;4.342;2023-04-21T12:16:54;24.80;60.90
34833;DHT22;55941;50.800;4.342;2023-04-21T12:19:40;25.00;61.60
34833;DHT22;55941;50.800;4.342;2023-04-21T12:22:10;25.10;59.60
34833;DHT22;55941;50.800;4.342;2023-04-21T12:24:36;25.40;60.40
34833;DHT22;55941;50.800;4.342;2023-04-21T12:27:03;24.80;58.20
34833;DHT22;55941;50.800;4.342;2023-04-21T12:29:29;25.50;59.20
34833;DHT22;55941;50.800;4.342;2023-04-21T12:31:55;25.50;57.60
34833;DHT22;55941;50.800;4.342;2023-04-21T12:34:20;25.90;55.70
34833;DHT22;55941;50.800;4.342;2023-04-21T12:36:46;25.70;56.20
34833;DHT22;55941;50.800;4.342;2023-04-21T12:39:12;25.70;53.70
34833;DHT22;55941;50.800;4.342;2023-04-21T12:41:38;25.60;51.60
34833;DHT22;55941;50.800;4.342;2023-04-21T12:44:04;25.40;53.50
34833;DHT22;55941;50.800;4.342;2023-04-21T12:46:30;25.30;51.10
34833;DHT22;55941;50.800;4.342;2023-04-21T12:48:56;25.80;52.20
34833;DHT22;55941;50.800;4.342;2023-04-21T12:51:22;25.70;53.00
34833;DHT22;55941;50.800;4.342;2023-04-21T12:53:49;25.30;52.80
34833;DHT22;55941;50.800;4.342;2023-04-21T12:56:15;24.80;52.60
34833;DHT22;55941;50.800;4.342;2023-04-21T12:58:41;23.60;53.60
34833;DHT22;55941;50.800;4.342;2023-04-21T13:01:07;22.90;55.00
34833;DHT22;55941;50.800;4.342;2023-04-21T13:03:32;22.40;56.80
34833;DHT22;55941;50.800;4.342;2023-04-21T13:05:58;22.30;56.60
34833;DHT22;55941;50.800;4.342;2023-04-21T13:08:24;21.90;56.20
34833;DHT22;55941;50.800;4.342;2023-04-21T13:10:51;22.10;56.50
34833;DHT22;55941;50.800;4.342;2023-04-21T13:13:16;22.50;56.60
34833;DHT22;55941;50.800;4.342;2023-04-21T13:15:42;22.50;57.30
34833;DHT22;55941;50.800;4.342;2023-04-21T13:18:08;22.70;56.80
34833;DHT22;55941;50.800;4.342;2023-04-21T13:20:33;23.00;56.40
34833;DHT22;55941;50.800;4.342;2023-04-21T13:22:59;23.30;55.00
34833;DHT22;55941;50.800;4.342;2023-04-21T13:25:25;23.30;53.70
34833;DHT22;55941;50.800;4.342;2023-04-21T13:27:51;23.20;54.10
34833;DHT22;55941;50.800;4.342;2023-04-21T13:30:16;23.40;54.50
34833;DHT22;55941;50.800;4.342;2023-04-21T13:32:42;23.70;54.30
34833;DHT22;55941;50.800;4.342;2023-04-21T13:35:08;23.60;54.90
34833;DHT22;55941;50.800;4.342;2023-04-21T13:37:38;23.60;54.60
34833;DHT22;55941;50.800;4.342;2023-04-21T13:40:07;23.20;54.80
34833;DHT22;55941;50.800;4.342;2023-04-21T13:42:36;23.70;55.50
34833;DHT22;55941;50.800;4.342;2023-04-21T13:45:03;24.20;54.70
34833;DHT22;55941;50.800;4.342;2023-04-21T13:47:32;23.60;55.80
34833;DHT22;55941;50.800;4.342;2023-04-21T13:49:58;23.20;55.60
34833;DHT22;55941;50.800;4.342;2023-04-21T13:52:24;23.10;55.60
34833;DHT22;55941;50.800;4.342;2023-04-21T13:54:51;23.40;55.90
34833;DHT22;55941;50.800;4.342;2023-04-21T13:57:17;23.50;54.00
34833;DHT22;55941;50.800;4.342;2023-04-21T13:59:43;23.80;55.10
34833;DHT22;55941;50.800;4.342;2023-04-21T14:02:09;23.40;55.00
34833;DHT22;55941;50.800;4.342;2023-04-21T14:04:35;24.00;54.20
34833;DHT22;55941;50.800;4.342;2023-04-21T14:07:02;25.10;53.40
34833;DHT22;55941;50.800;4.342;2023-04-21T14:09:28;25.20;51.80
34833;DHT22;55941;50.800;4.342;2023-04-21T14:11:54;24.60;52.10
34833;DHT22;55941;50.800;4.342;2023-04-21T14:14:20;24.50;52.90
34833;DHT22;55941;50.800;4.342;2023-04-21T14:16:46;25.00;52.20
34833;DHT22;55941;50.800;4.342;2023-04-21T14:19:15;25.30;52.00
34833;DHT22;55941;50.800;4.342;2023-04-21T14:21:41;24.00;52.60
34833;DHT22;55941;50.800;4.342;2023-04-21T14:24:09;23.30;53.90
34833;DHT22;55941;50.800;4.342;2023-04-21T14:26:34;22.80;55.60
34833;DHT22;55941;50.800;4.342;2023-04-21T14:29:01;22.10;57.20
34833;DHT22;55941;50.800;4.342;2023-04-21T14:31:27;23.00;55.80
34833;DHT22;55941;50.800;4.342;2023-04-21T14:33:53;23.90;53.50
34833;DHT22;55941;50.800;4.342;2023-04-21T14:36:19;24.60;52.50
34833;DHT22;55941;50.800;4.342;2023-04-21T14:38:45;25.20;51.50
34833;DHT22;55941;50.800;4.342;2023-04-21T14:41:11;25.60;51.30
34833;DHT22;55941;50.800;4.342;2023-04-21T14:43:37;25.90;51.20
34833;DHT22;55941;50.800;4.342;2023-04-21T14:46:03;26.00;49.40
34833;DHT22;55941;50.800;4.342;2023-04-21T14:48:29;25.90;50.60
34833;DHT22;55941;50.800;4.342;2023-04-21T14:50:54;25.90;50.80
34833;DHT22;55941;50.800;4.342;2023-04-21T14:53:22;25.20;51.30
34833;DHT22;55941;50.800;4.342;2023-04-21T14:55:48;23.60;52.90
34833;DHT22;55941;50.800;4.342;2023-04-21T14:58:14;23.80;53.50
34833;DHT22;55941;50.800;4.342;2023-04-21T15:00:40;23.90;52.60
34833;DHT22;55941;50.800;4.342;2023-04-21T15:03:05;23.80;52.80
34833;DHT22;55941;50.800;4.342;2023-04-21T15:05:31;23.10;54.20
34833;DHT22;55941;50.800;4.342;2023-04-21T15:07:59;22.50;56.70
34833;DHT22;55941;50.800;4.342;2023-04-21T15:10:25;22.50;55.90
34833;DHT22;55941;50.800;4.342;2023-04-21T15:12:51;21.80;57.80
34833;DHT22;55941;50.800;4.342;2023-04-21T15:15:17;21.40;58.20
34833;DHT22;55941;50.800;4.342;2023-04-21T15:17:43;21.10;58.50
34833;DHT22;55941;50.800;4.342;2023-04-21T15:20:09;20.90;58.50
34833;DHT22;55941;50.800;4.342;2023-04-21T15:22:35;20.60;59.90
34833;DHT22;55941;50.800;4.342;2023-04-21T15:25:01;20.50;59.80
34833;DHT22;55941;50.800;4.342;2023-04-21T15:27:26;20.20;59.80
34833;DHT22;55941;50.800;4.342;2023-04-21T15:29:53;20.10;60.20
34833;DHT22;55941;50.800;4.342;2023-04-21T15:32:19;19.80;61.60
34833;DHT22;55941;50.800;4.342;2023-04-21T15:34:45;19.70;61.80
34833;DHT22;55941;50.800;4.342;2023-04-21T15:37:11;19.80;62.20
34833;DHT22;55941;50.800;4.342;2023-04-21T15:39:36;20.00;62.00
34833;DHT22;55941;50.800;4.342;2023-04-21T15:42:03;19.90;61.90
34833;DHT22;55941;50.800;4.342;2023-04-21T15:44:29;19.70;62.70
34833;DHT22;55941;50.800;4.342;2023-04-21T15:46:55;19.60;63.50